createdAt,value
2023-05-21T00:01:54.444Z,11.00
2023-05-21T00:04:21.108Z,10.90
2023-05-21T00:06:47.735Z,10.90
2023-05-21T00:09:14.536Z,10.90
2023-05-21T00:11:41.582Z,10.90
2023-05-21T00:14:08.562Z,10.90
2023-05-21T00:16:35.640Z,10.80
2023-05-21T00:19:02.539Z,10.70
2023-05-21T00:21:29.962Z,10.70
2023-05-21T00:23:56.866Z,10.70
2023-05-21T00:26:24.275Z,10.70
2023-05-21T00:28:51.170Z,10.70
2023-05-21T00:31:17.924Z,10.70
2023-05-21T00:33:44.689Z,10.70
2023-05-21T00:36:14.691Z,10.70
2023-05-21T00:38:43.841Z,10.70
2023-05-21T00:41:11.112Z,10.70
2023-05-21T00:43:40.353Z,10.50
2023-05-21T00:46:07.107Z,10.50
2023-05-21T00:48:34.131Z,10.50
2023-05-21T00:51:01.236Z,10.40
2023-05-21T00:53:27.952Z,10.40
2023-05-21T00:55:54.885Z,10.40
2023-05-21T00:58:21.962Z,10.40
2023-05-21T01:00:49.006Z,10.40
2023-05-21T01:03:16.639Z,10.30
2023-05-21T01:05:45.375Z,10.30
2023-05-21T01:08:13.270Z,10.30
2023-05-21T01:10:39.909Z,10.30
2023-05-21T01:13:06.540Z,10.20
2023-05-21T01:15:33.543Z,10.20
2023-05-21T01:18:00.593Z,10.10
2023-05-21T01:20:27.470Z,10.10
2023-05-21T01:22:54.188Z,10.10
2023-05-21T01:25:20.815Z,10.10
2023-05-21T01:27:47.878Z,10.10
2023-05-21T01:30:14.698Z,10.00
2023-05-21T01:32:41.538Z,10.00
2023-05-21T01:35:08.770Z,10.00
2023-05-21T01:37:35.563Z,10.00
2023-05-21T01:40:03.176Z,9.90
2023-05-21T01:42:30.167Z,9.90
2023-05-21T01:44:57.069Z,9.90
2023-05-21T01:47:23.828Z,9.80
2023-05-21T01:49:50.603Z,9.80
2023-05-21T01:52:17.584Z,9.80
2023-05-21T01:54:44.652Z,9.70
2023-05-21T01:57:11.329Z,9.70
2023-05-21T01:59:38.880Z,9.70
2023-05-21T02:02:05.924Z,9.60
2023-05-21T02:04:32.896Z,9.60
2023-05-21T02:06:59.671Z,9.50
2023-05-21T02:09:26.335Z,9.40
2023-05-21T02:11:53.352Z,9.30
2023-05-21T02:14:20.924Z,9.40
2023-05-21T02:16:47.957Z,9.30
2023-05-21T02:19:14.990Z,9.30
2023-05-21T02:21:42.187Z,9.30
2023-05-21T02:24:08.929Z,9.20
2023-05-21T02:26:35.974Z,9.20
2023-05-21T02:29:03.146Z,9.20
2023-05-21T02:31:30.166Z,9.10
2023-05-21T02:33:56.955Z,9.00
2023-05-21T02:36:25.324Z,9.10
2023-05-21T02:38:53.167Z,9.10
2023-05-21T02:41:20.046Z,9.10
2023-05-21T02:43:46.739Z,9.10
2023-05-21T02:46:13.498Z,9.00
2023-05-21T02:48:40.416Z,9.10
2023-05-21T02:51:07.134Z,9.00
2023-05-21T02:53:33.866Z,9.00
2023-05-21T02:56:00.817Z,9.00
2023-05-21T02:58:27.715Z,8.90
2023-05-21T03:00:54.782Z,8.90
2023-05-21T03:03:21.948Z,8.90
2023-05-21T03:05:48.828Z,8.90
2023-05-21T03:08:15.986Z,8.80
2023-05-21T03:10:42.636Z,8.80
2023-05-21T03:13:09.995Z,8.80
2023-05-21T03:15:39.317Z,8.80
2023-05-21T03:18:06.330Z,8.80
2023-05-21T03:20:33.534Z,8.80
2023-05-21T03:23:00.735Z,8.70
2023-05-21T03:25:27.476Z,8.70
2023-05-21T03:27:54.153Z,8.60
2023-05-21T03:30:20.804Z,8.70
2023-05-21T03:32:47.806Z,8.70
2023-05-21T03:35:14.500Z,8.60
2023-05-21T03:37:41.638Z,8.60
2023-05-21T03:40:08.733Z,8.60
2023-05-21T03:42:35.779Z,8.50
2023-05-21T03:45:02.803Z,8.50
2023-05-21T03:47:29.822Z,8.50
2023-05-21T03:49:56.871Z,8.50
2023-05-21T03:52:23.656Z,8.40
2023-05-21T03:54:50.610Z,8.40
2023-05-21T03:57:17.508Z,8.30
2023-05-21T03:59:44.162Z,8.30
2023-05-21T04:02:10.983Z,8.30
2023-05-21T04:04:37.732Z,8.30
2023-05-21T04:07:04.743Z,8.30
2023-05-21T04:09:31.412Z,8.20
2023-05-21T04:11:58.108Z,8.20
2023-05-21T04:14:24.750Z,8.20
2023-05-21T04:16:51.553Z,8.20
2023-05-21T04:19:18.305Z,8.10
2023-05-21T04:21:45.234Z,8.10
2023-05-21T04:24:12.280Z,8.10
2023-05-21T04:26:42.136Z,8.10
2023-05-21T04:29:08.803Z,8.00
2023-05-21T04:31:35.536Z,7.90
2023-05-21T04:34:02.280Z,7.90
2023-05-21T04:36:29.088Z,7.90
2023-05-21T04:38:55.874Z,7.90
2023-05-21T04:41:22.588Z,7.80
2023-05-21T04:43:49.735Z,7.80
2023-05-21T04:46:16.576Z,7.80
2023-05-21T04:48:43.690Z,7.90
2023-05-21T04:51:10.422Z,7.90
2023-05-21T04:53:37.178Z,7.90
2023-05-21T04:56:04.293Z,8.00
2023-05-21T04:58:33.315Z,8.00
2023-05-21T05:01:03.609Z,8.10
2023-05-21T05:03:30.897Z,8.20
2023-05-21T05:05:57.898Z,8.20
2023-05-21T05:08:24.884Z,8.30
2023-05-21T05:10:52.140Z,8.40
2023-05-21T05:13:19.186Z,8.40
2023-05-21T05:15:48.717Z,8.50
2023-05-21T05:18:16.643Z,8.60
2023-05-21T05:20:43.488Z,8.70
2023-05-21T05:23:10.416Z,8.80
2023-05-21T05:25:37.805Z,8.90
2023-05-21T05:28:04.567Z,8.90
2023-05-21T05:30:31.304Z,8.90
2023-05-21T05:32:58.268Z,9.00
2023-05-21T05:35:24.975Z,9.00
2023-05-21T05:37:51.742Z,9.10
2023-05-21T05:40:18.668Z,9.20
2023-05-21T05:42:45.680Z,9.20
2023-05-21T05:45:12.544Z,9.30
2023-05-21T05:47:39.212Z,9.40
2023-05-21T05:50:06.430Z,9.50
2023-05-21T05:52:33.613Z,9.50
2023-05-21T05:55:00.497Z,9.60
2023-05-21T05:57:27.490Z,9.70
2023-05-21T05:59:54.281Z,9.80
2023-05-21T06:02:20.985Z,9.80
2023-05-21T06:04:47.619Z,9.90
2023-05-21T06:07:14.295Z,10.00
2023-05-21T06:09:41.007Z,10.00
2023-05-21T06:12:08.668Z,10.10
2023-05-21T06:14:36.555Z,10.20
2023-05-21T06:17:03.204Z,10.30
2023-05-21T06:19:29.975Z,10.30
2023-05-21T06:21:56.703Z,10.40
2023-05-21T06:24:23.356Z,10.50
2023-05-21T06:26:50.351Z,10.60
2023-05-21T06:29:17.150Z,10.60
2023-05-21T06:31:43.758Z,10.60
2023-05-21T06:34:11.840Z,10.80
2023-05-21T06:36:38.465Z,10.80
2023-05-21T06:39:05.128Z,11.00
2023-05-21T06:41:32.073Z,11.10
2023-05-21T06:43:58.700Z,11.30
2023-05-21T06:46:25.534Z,11.70
2023-05-21T06:48:52.473Z,11.90
2023-05-21T06:51:19.132Z,12.30
2023-05-21T06:53:45.889Z,12.80
2023-05-21T06:56:13.289Z,13.00
2023-05-21T06:58:39.972Z,13.30
2023-05-21T07:01:06.812Z,13.40
2023-05-21T07:03:33.571Z,13.50
2023-05-21T07:06:00.234Z,13.70
2023-05-21T07:08:27.292Z,13.60
2023-05-21T07:10:53.970Z,13.40
2023-05-21T07:13:20.658Z,13.50
2023-05-21T07:15:47.314Z,13.70
2023-05-21T07:18:13.983Z,13.40
2023-05-21T07:20:40.667Z,13.60
2023-05-21T07:23:07.286Z,13.60
2023-05-21T07:25:34.008Z,13.60
2023-05-21T07:28:00.964Z,13.70
2023-05-21T07:30:27.593Z,13.70
2023-05-21T07:32:54.360Z,13.70
2023-05-21T07:35:21.169Z,13.90
2023-05-21T07:37:48.242Z,14.00
2023-05-21T07:40:15.013Z,13.80
2023-05-21T07:42:41.672Z,13.70
2023-05-21T07:45:08.291Z,13.70
2023-05-21T07:47:35.098Z,13.70
2023-05-21T07:50:01.786Z,13.80
2023-05-21T07:52:28.504Z,13.80
2023-05-21T07:54:55.206Z,13.90
2023-05-21T07:57:21.886Z,14.10
2023-05-21T07:59:48.526Z,14.10
2023-05-21T08:02:15.287Z,14.20
2023-05-21T08:04:42.532Z,14.10
2023-05-21T08:07:10.157Z,14.20
2023-05-21T08:09:36.882Z,14.30
2023-05-21T08:12:03.490Z,14.40
2023-05-21T08:14:30.239Z,14.40
2023-05-21T08:16:57.239Z,14.40
2023-05-21T08:19:23.946Z,14.50
2023-05-21T08:21:52.821Z,14.70
2023-05-21T08:24:19.808Z,14.80
2023-05-21T08:26:47.520Z,14.90
2023-05-21T08:29:14.162Z,15.10
2023-05-21T08:31:41.642Z,15.20
2023-05-21T08:34:08.317Z,15.20
2023-05-21T08:36:35.280Z,15.40
2023-05-21T08:39:01.891Z,15.20
2023-05-21T08:41:28.586Z,15.30
2023-05-21T08:43:55.694Z,15.40
2023-05-21T08:46:22.659Z,15.40
2023-05-21T08:48:49.410Z,15.50
2023-05-21T08:51:16.051Z,15.50
2023-05-21T08:53:42.729Z,15.60
2023-05-21T08:56:09.598Z,15.70
2023-05-21T08:58:36.486Z,15.80
2023-05-21T09:01:04.668Z,15.90
2023-05-21T09:03:33.122Z,16.10
2023-05-21T09:05:59.822Z,16.20
2023-05-21T09:08:26.487Z,16.40
2023-05-21T09:10:53.142Z,16.50
2023-05-21T09:13:19.955Z,16.60
2023-05-21T09:15:46.944Z,16.70
2023-05-21T09:18:13.638Z,16.80
2023-05-21T09:20:40.300Z,16.90
2023-05-21T09:23:07.206Z,17.10
2023-05-21T09:25:34.462Z,17.30
2023-05-21T09:28:01.221Z,17.60
2023-05-21T09:30:29.735Z,17.80
2023-05-21T09:32:57.323Z,17.80
2023-05-21T09:35:24.014Z,17.90
2023-05-21T09:37:50.876Z,17.80
2023-05-21T09:40:17.708Z,18.00
2023-05-21T09:42:44.408Z,18.00
2023-05-21T09:45:11.471Z,18.10
2023-05-21T09:47:38.186Z,17.60
2023-05-21T09:50:05.008Z,17.70
2023-05-21T09:52:32.359Z,17.90
2023-05-21T09:54:58.971Z,18.00
2023-05-21T09:57:25.659Z,18.10
2023-05-21T09:59:52.736Z,17.90
2023-05-21T10:02:19.428Z,17.80
2023-05-21T10:04:46.220Z,17.70
2023-05-21T10:07:12.935Z,17.50
2023-05-21T10:09:39.709Z,17.50
2023-05-21T10:12:06.869Z,17.40
2023-05-21T10:14:34.164Z,17.60
2023-05-21T10:17:00.870Z,17.70
2023-05-21T10:19:27.819Z,17.40
2023-05-21T10:21:54.632Z,17.50
2023-05-21T10:24:21.292Z,17.60
2023-05-21T10:26:48.030Z,17.50
2023-05-21T10:29:15.624Z,17.70
2023-05-21T10:31:44.117Z,17.60
2023-05-21T10:34:10.861Z,17.60
2023-05-21T10:36:37.572Z,17.70
2023-05-21T10:39:04.389Z,17.60
2023-05-21T10:41:31.410Z,17.60
2023-05-21T10:43:58.446Z,17.60
2023-05-21T10:46:25.095Z,17.60
2023-05-21T10:48:51.950Z,17.60
2023-05-21T10:51:18.664Z,17.70
2023-05-21T10:53:45.319Z,17.60
2023-05-21T10:56:11.995Z,17.70
2023-05-21T10:58:38.814Z,17.70
2023-05-21T11:01:05.733Z,17.90
2023-05-21T11:03:34.336Z,17.90
2023-05-21T11:06:03.457Z,18.10
2023-05-21T11:08:37.308Z,18.30
2023-05-21T11:11:04.149Z,18.50
2023-05-21T11:13:31.439Z,18.80
2023-05-21T11:15:58.471Z,19.10
2023-05-21T11:18:25.140Z,19.20
2023-05-21T11:20:52.222Z,19.30
2023-05-21T11:23:18.887Z,19.50
2023-05-21T11:25:45.548Z,19.40
2023-05-21T11:28:15.366Z,19.50
2023-05-21T11:30:42.345Z,19.40
2023-05-21T11:33:12.302Z,19.40
2023-05-21T11:35:39.143Z,19.40
2023-05-21T11:38:06.126Z,19.50
2023-05-21T11:40:33.138Z,19.60
2023-05-21T11:42:59.808Z,19.50
2023-05-21T11:45:26.722Z,19.10
2023-05-21T11:47:53.717Z,19.10
2023-05-21T11:50:20.886Z,19.10
2023-05-21T11:52:47.742Z,19.20
2023-05-21T11:55:15.818Z,18.90
2023-05-21T11:57:42.875Z,19.00
2023-05-21T12:00:14.218Z,19.10
2023-05-21T12:02:41.021Z,18.90
2023-05-21T12:05:10.169Z,19.10
2023-05-21T12:07:37.206Z,19.10
2023-05-21T12:10:03.852Z,19.30
2023-05-21T12:12:38.820Z,19.40
2023-05-21T12:15:13.555Z,19.40
2023-05-21T12:17:40.828Z,19.20
2023-05-21T12:20:08.366Z,19.40
2023-05-21T12:22:35.010Z,19.90
2023-05-21T12:25:02.128Z,20.20
2023-05-21T12:27:31.222Z,20.10
2023-05-21T12:29:58.679Z,19.50
2023-05-21T12:32:25.365Z,20.10
2023-05-21T12:34:52.685Z,20.60
2023-05-21T12:37:19.489Z,21.00
2023-05-21T12:39:46.244Z,20.80
2023-05-21T12:42:12.944Z,20.80
2023-05-21T12:44:39.746Z,20.80
2023-05-21T12:47:06.501Z,20.90
2023-05-21T12:49:33.161Z,20.50
2023-05-21T12:51:59.932Z,20.10
2023-05-21T12:54:26.585Z,20.10
2023-05-21T12:56:53.234Z,19.80
2023-05-21T12:59:19.916Z,19.80
2023-05-21T13:01:46.684Z,19.50
2023-05-21T13:04:13.437Z,19.20
2023-05-21T13:06:40.128Z,19.30
2023-05-21T13:09:06.814Z,19.40
2023-05-21T13:11:33.459Z,19.50
2023-05-21T13:14:00.382Z,19.40
2023-05-21T13:16:27.085Z,19.60
2023-05-21T13:18:53.895Z,19.30
2023-05-21T13:21:20.752Z,19.40
2023-05-21T13:23:47.749Z,19.40
2023-05-21T13:26:14.410Z,19.50
2023-05-21T13:28:42.764Z,19.60
2023-05-21T13:31:09.917Z,19.60
2023-05-21T13:33:36.879Z,19.40
2023-05-21T13:36:03.709Z,18.90
2023-05-21T13:38:30.405Z,19.00
2023-05-21T13:40:57.112Z,18.80
2023-05-21T13:43:23.785Z,19.00
2023-05-21T13:45:51.807Z,19.00
2023-05-21T13:48:18.615Z,19.00
2023-05-21T13:50:46.025Z,19.10
2023-05-21T13:53:12.786Z,19.10
2023-05-21T13:55:39.475Z,19.00
2023-05-21T13:58:06.369Z,19.00
2023-05-21T14:00:33.010Z,19.00
2023-05-21T14:02:59.829Z,19.00
2023-05-21T14:05:26.642Z,19.00
2023-05-21T14:07:53.275Z,19.00
2023-05-21T14:10:20.745Z,19.20
2023-05-21T14:12:47.418Z,19.20
2023-05-21T14:15:14.116Z,19.10
2023-05-21T14:17:42.376Z,19.20
2023-05-21T14:20:09.533Z,19.30
2023-05-21T14:22:36.277Z,19.30
2023-05-21T14:25:03.408Z,19.30
2023-05-21T14:27:30.057Z,19.30
2023-05-21T14:29:56.735Z,19.30
2023-05-21T14:32:23.533Z,19.30
2023-05-21T14:34:50.278Z,19.30
2023-05-21T14:37:17.166Z,19.30
2023-05-21T14:39:44.076Z,19.30
2023-05-21T14:42:10.691Z,19.30
2023-05-21T14:44:37.353Z,19.30
2023-05-21T14:47:04.044Z,19.40
2023-05-21T14:49:30.784Z,19.20
2023-05-21T14:51:57.462Z,19.00
2023-05-21T14:54:24.106Z,18.80
2023-05-21T14:56:50.890Z,18.80
2023-05-21T14:59:17.620Z,19.00
2023-05-21T15:01:44.291Z,18.80
2023-05-21T15:04:11.449Z,18.60
2023-05-21T15:06:38.263Z,18.70
2023-05-21T15:09:04.995Z,18.60
2023-05-21T15:11:33.954Z,18.60
2023-05-21T15:14:00.738Z,18.80
2023-05-21T15:16:27.596Z,18.90
2023-05-21T15:18:54.424Z,18.90
2023-05-21T15:21:21.134Z,18.90
2023-05-21T15:23:47.997Z,18.80
2023-05-21T15:26:14.709Z,18.90
2023-05-21T15:28:41.523Z,18.80
2023-05-21T15:31:08.214Z,18.90
2023-05-21T15:33:34.851Z,19.10
2023-05-21T15:36:01.560Z,19.20
2023-05-21T15:38:28.270Z,19.40
2023-05-21T15:40:55.385Z,19.50
2023-05-21T15:43:22.042Z,19.70
2023-05-21T15:45:48.673Z,19.80
2023-05-21T15:48:19.916Z,19.80
2023-05-21T15:50:46.914Z,19.10
2023-05-21T15:53:13.679Z,18.70
2023-05-21T15:55:40.530Z,19.00
2023-05-21T15:58:07.400Z,19.20
2023-05-21T16:00:34.180Z,19.30
2023-05-21T16:03:01.039Z,19.40
2023-05-21T16:05:27.810Z,19.30
2023-05-21T16:07:54.493Z,18.80
2023-05-21T16:10:21.136Z,18.80
2023-05-21T16:12:48.248Z,18.80
2023-05-21T16:15:14.878Z,19.00
2023-05-21T16:17:41.723Z,19.00
2023-05-21T16:20:08.359Z,18.80
2023-05-21T16:22:35.067Z,18.80
2023-05-21T16:25:01.696Z,18.80
2023-05-21T16:27:28.522Z,18.80
2023-05-21T16:29:55.184Z,18.70
2023-05-21T16:32:22.104Z,18.70
2023-05-21T16:34:48.977Z,18.60
2023-05-21T16:37:15.676Z,18.50
2023-05-21T16:39:42.338Z,18.50
2023-05-21T16:42:09.046Z,18.30
2023-05-21T16:44:37.757Z,18.30
2023-05-21T16:47:04.480Z,18.30
2023-05-21T16:49:31.154Z,18.40
2023-05-21T16:51:57.819Z,18.50
2023-05-21T16:54:24.705Z,18.50
2023-05-21T16:56:51.424Z,18.50
2023-05-21T16:59:18.556Z,18.50
2023-05-21T17:01:45.365Z,18.40
2023-05-21T17:04:12.123Z,18.40
2023-05-21T17:06:38.825Z,18.40
2023-05-21T17:09:05.557Z,18.40
2023-05-21T17:11:32.315Z,18.40
2023-05-21T17:13:59.018Z,18.40
2023-05-21T17:16:25.753Z,18.40
2023-05-21T17:18:52.472Z,18.20
2023-05-21T17:21:19.547Z,18.20
2023-05-21T17:23:46.345Z,18.20
2023-05-21T17:26:13.970Z,18.10
2023-05-21T17:28:40.734Z,18.10
2023-05-21T17:31:07.525Z,18.10
2023-05-21T17:33:34.242Z,18.00
2023-05-21T17:36:02.169Z,17.80
2023-05-21T17:38:28.808Z,17.70
2023-05-21T17:40:55.755Z,17.70
2023-05-21T17:43:23.089Z,17.60
2023-05-21T17:45:50.000Z,17.50
2023-05-21T17:48:16.778Z,17.40
2023-05-21T17:50:45.340Z,17.40
2023-05-21T17:53:13.063Z,17.40
2023-05-21T17:55:39.778Z,17.50
2023-05-21T17:58:06.606Z,17.20
2023-05-21T18:00:33.544Z,17.20
2023-05-21T18:03:01.197Z,17.20
2023-05-21T18:05:27.870Z,17.10
2023-05-21T18:07:54.515Z,17.10
2023-05-21T18:10:21.244Z,17.10
2023-05-21T18:12:47.982Z,17.10
2023-05-21T18:15:15.312Z,17.20
2023-05-21T18:17:42.029Z,17.20
2023-05-21T18:20:08.767Z,17.20
2023-05-21T18:22:36.728Z,17.20
2023-05-21T18:25:03.410Z,17.20
2023-05-21T18:27:30.287Z,17.30
2023-05-21T18:29:57.063Z,17.20
2023-05-21T18:32:23.755Z,17.20
2023-05-21T18:34:50.493Z,17.10
2023-05-21T18:37:17.642Z,17.10
2023-05-21T18:39:44.452Z,17.00
2023-05-21T18:42:13.315Z,17.00
2023-05-21T18:44:40.509Z,17.00
2023-05-21T18:47:07.868Z,16.90
2023-05-21T18:49:36.089Z,16.90
2023-05-21T18:52:03.181Z,16.90
2023-05-21T18:54:29.802Z,16.90
2023-05-21T18:56:59.781Z,16.90
2023-05-21T18:59:26.679Z,16.80
2023-05-21T19:01:53.376Z,16.70
2023-05-21T19:04:20.069Z,16.70
2023-05-21T19:06:47.204Z,16.80
2023-05-21T19:09:13.870Z,16.80
2023-05-21T19:11:40.639Z,16.80
2023-05-21T19:14:07.298Z,16.70
2023-05-21T19:16:34.070Z,16.70
2023-05-21T19:19:00.905Z,16.80
2023-05-21T19:21:27.605Z,16.70
2023-05-21T19:23:54.281Z,16.50
2023-05-21T19:26:21.387Z,16.50
2023-05-21T19:28:53.019Z,16.50
2023-05-21T19:31:20.094Z,16.50
2023-05-21T19:33:46.927Z,16.40
2023-05-21T19:36:13.802Z,16.30
2023-05-21T19:38:40.885Z,16.20
2023-05-21T19:41:07.581Z,16.10
2023-05-21T19:43:34.496Z,15.90
2023-05-21T19:46:01.358Z,15.80
2023-05-21T19:48:31.036Z,15.70
2023-05-21T19:50:58.011Z,15.70
2023-05-21T19:53:24.750Z,15.70
2023-05-21T19:55:51.467Z,15.50
2023-05-21T19:58:23.449Z,15.40
2023-05-21T20:00:50.812Z,15.40
2023-05-21T20:03:17.611Z,15.30
2023-05-21T20:05:44.346Z,15.20
2023-05-21T20:08:11.028Z,15.10
2023-05-21T20:10:37.981Z,15.10
2023-05-21T20:13:04.773Z,14.90
2023-05-21T20:15:31.394Z,14.90
2023-05-21T20:17:59.123Z,14.90
2023-05-21T20:20:26.809Z,14.90
2023-05-21T20:22:53.530Z,14.80
2023-05-21T20:25:20.194Z,14.80
2023-05-21T20:27:47.023Z,14.70
2023-05-21T20:30:13.656Z,14.60
2023-05-21T20:32:40.384Z,14.50
2023-05-21T20:35:08.827Z,14.50
2023-05-21T20:37:36.861Z,14.30
2023-05-21T20:40:05.210Z,14.30
2023-05-21T20:42:34.807Z,14.20
2023-05-21T20:45:01.894Z,14.30
2023-05-21T20:47:30.164Z,14.30
2023-05-21T20:49:57.742Z,14.30
2023-05-21T20:52:24.945Z,14.30
2023-05-21T20:54:54.630Z,14.30
2023-05-21T20:57:22.481Z,14.30
2023-05-21T20:59:49.098Z,14.30
2023-05-21T21:02:15.716Z,14.30
2023-05-21T21:04:42.379Z,14.30
2023-05-21T21:07:10.150Z,14.30
2023-05-21T21:09:37.318Z,14.40
2023-05-21T21:12:14.410Z,14.40
2023-05-21T21:14:50.541Z,14.40
2023-05-21T21:17:17.216Z,14.40
2023-05-21T21:19:43.809Z,14.40
2023-05-21T21:22:10.638Z,14.40
2023-05-21T21:24:37.285Z,14.40
2023-05-21T21:27:03.945Z,14.30
2023-05-21T21:29:30.639Z,14.30
2023-05-21T21:31:57.344Z,14.30
2023-05-21T21:34:25.238Z,14.30
2023-05-21T21:36:51.980Z,14.30
2023-05-21T21:39:18.649Z,14.30
2023-05-21T21:41:45.739Z,14.20
2023-05-21T21:44:12.438Z,14.30
2023-05-21T21:46:39.139Z,14.20
2023-05-21T21:49:05.813Z,14.10
2023-05-21T21:51:32.458Z,14.00
2023-05-21T21:53:59.210Z,14.00
2023-05-21T21:56:26.213Z,13.90
2023-05-21T21:58:53.422Z,14.00
2023-05-21T22:01:20.270Z,14.00
2023-05-21T22:03:47.300Z,13.90
2023-05-21T22:06:13.953Z,13.80
2023-05-21T22:08:40.888Z,13.80
2023-05-21T22:11:07.672Z,13.80
2023-05-21T22:13:34.444Z,13.90
2023-05-21T22:16:02.119Z,13.80
2023-05-21T22:18:40.201Z,13.80
2023-05-21T22:21:09.740Z,13.70
2023-05-21T22:23:36.726Z,13.60
2023-05-21T22:26:03.544Z,13.50
2023-05-21T22:28:30.193Z,13.50
2023-05-21T22:30:56.899Z,13.50
2023-05-21T22:33:23.593Z,13.40
2023-05-21T22:35:50.317Z,13.30
2023-05-21T22:38:17.861Z,13.30
2023-05-21T22:40:44.550Z,13.20
2023-05-21T22:43:11.375Z,13.20
2023-05-21T22:45:38.435Z,13.10
2023-05-21T22:48:07.411Z,13.10
2023-05-21T22:50:34.191Z,13.10
2023-05-21T22:53:00.846Z,13.00
2023-05-21T22:55:27.506Z,13.00
2023-05-21T22:57:54.161Z,12.90
2023-05-21T23:00:20.881Z,12.90
2023-05-21T23:02:47.667Z,12.90
2023-05-21T23:05:14.364Z,12.80
2023-05-21T23:07:41.453Z,12.70
2023-05-21T23:10:08.133Z,12.60
2023-05-21T23:12:34.752Z,12.60
2023-05-21T23:15:01.421Z,12.60
2023-05-21T23:17:28.059Z,12.60
2023-05-21T23:19:54.720Z,12.60
2023-05-21T23:22:22.120Z,12.60
2023-05-21T23:24:48.977Z,12.50
2023-05-21T23:27:15.610Z,12.50
2023-05-21T23:29:42.249Z,12.50
2023-05-21T23:32:09.125Z,12.50
2023-05-21T23:34:35.941Z,12.40
2023-05-21T23:37:02.618Z,12.30
2023-05-21T23:39:29.594Z,12.30
2023-05-21T23:41:56.403Z,12.30
2023-05-21T23:44:23.222Z,12.30
2023-05-21T23:46:50.229Z,12.30
2023-05-21T23:49:17.010Z,12.20
2023-05-21T23:51:43.693Z,12.20
2023-05-21T23:54:10.327Z,12.20
2023-05-21T23:56:36.943Z,12.20
2023-05-21T23:59:03.565Z,12.20
